Time;durP1;ratioP1;P1;durP2;ratioP2;P2;SDS_P1;SDS_P2;PMS_P1;PMS_P2;Temp;Humidity;BMP_temperature;BMP_pressure;BME280_temperature;BME280_humidity;BME280_pressure;Samples;Min_cycle;Max_cycle;Signal;HPM_P1;HPM_P2
2023/06/10 00:03:03;;;;;;;2.15;1.40;;;;;;;-147.53;100.00;57128.34;10045854;29;20516;-83
2023/06/10 00:08:08;;;;;;;3.75;1.30;;;;;;;-147.53;100.00;57128.34;10042987;29;20530;-83
2023/06/10 00:13:11;;;;;;;3.70;1.30;;;;;;;-147.53;100.00;57128.34;10031531;29;20144;-83
2023/06/10 00:18:12;;;;;;;2.17;1.02;;;;;;;-147.53;100.00;57128.34;10020585;29;20792;-84
2023/06/10 00:23:14;;;;;;;7.93;1.90;;;;;;;-147.53;100.00;57128.34;10030839;29;20080;-84
2023/06/10 00:28:16;;;;;;;3.63;1.48;;;;;;;-147.53;100.00;57128.34;10030567;29;20218;-85
2023/06/10 00:33:18;;;;;;;1.73;0.95;;;;;;;-147.53;100.00;57128.34;10020645;29;20057;-84
2023/06/10 00:38:20;;;;;;;5.53;1.52;;;;;;;-147.53;100.00;57128.34;10018543;29;20053;-84
2023/06/10 00:43:22;;;;;;;3.38;1.10;;;;;;;-147.53;100.00;57128.34;10037476;29;20142;-83
2023/06/10 00:48:24;;;;;;;5.18;1.17;;;;;;;-147.53;100.00;57128.34;10020884;29;20136;-83
2023/06/10 00:53:27;;;;;;;4.55;1.48;;;;;;;-147.53;100.00;57128.34;10044144;29;20148;-83
2023/06/10 00:58:29;;;;;;;2.17;1.17;;;;;;;-147.53;100.00;57128.34;10027988;29;20045;-84
2023/06/10 01:03:36;;;;;;;6.07;1.17;;;;;;;-147.53;100.00;57128.34;10021218;29;20061;-84
2023/06/10 01:08:48;;;;;;;2.33;0.85;;;;;;;-147.53;100.00;57128.34;10034707;29;20061;-84
2023/06/10 01:13:51;;;;;;;5.45;1.25;;;;;;;-147.53;100.00;57128.34;10020508;29;20065;-84
2023/06/10 01:18:54;;;;;;;2.83;1.05;;;;;;;-147.53;100.00;57128.34;10012858;29;20412;-82
2023/06/10 01:23:56;;;;;;;3.30;1.52;;;;;;;-147.53;100.00;57128.34;10043174;29;20089;-83
2023/06/10 01:29:06;;;;;;;3.28;1.40;;;;;;;-147.53;100.00;57128.34;10038725;29;20057;-84
2023/06/10 01:34:12;;;;;;;3.70;1.85;;;;;;;-147.53;100.00;57128.34;10035464;29;20563;-84
2023/06/10 01:39:20;;;;;;;3.35;1.50;;;;;;;-147.53;100.00;57128.34;10032055;29;20068;-84
2023/06/10 01:44:23;;;;;;;5.78;1.08;;;;;;;-147.53;100.00;57128.34;10036293;29;20062;-85
2023/06/10 01:49:26;;;;;;;7.90;1.33;;;;;;;-147.53;100.00;57128.34;10023520;29;20057;-84
2023/06/10 01:54:27;;;;;;;6.55;1.35;;;;;;;-147.53;100.00;57128.34;10020092;29;20050;-84
2023/06/10 01:59:30;;;;;;;4.03;1.08;;;;;;;-147.53;100.00;57128.34;10036532;29;20088;-84
2023/06/10 02:04:32;;;;;;;3.17;1.55;;;;;;;-147.53;100.00;57128.34;10025903;29;20187;-83
2023/06/10 02:09:36;;;;;;;7.53;1.52;;;;;;;-147.53;100.00;57128.34;10021427;29;20061;-84
2023/06/10 02:14:38;;;;;;;5.30;1.40;;;;;;;-147.53;100.00;57128.34;10037823;29;20049;-84
2023/06/10 02:19:42;;;;;;;6.78;1.80;;;;;;;-147.53;100.00;57128.34;10012100;29;20057;-84
2023/06/10 02:24:44;;;;;;;5.35;1.42;;;;;;;-147.53;100.00;57128.34;10049417;29;20190;-84
2023/06/10 02:29:46;;;;;;;2.85;1.33;;;;;;;-147.53;100.00;57128.34;10035567;29;20050;-84
2023/06/10 02:34:48;;;;;;;1.67;1.20;;;;;;;-147.53;100.00;57128.34;10013590;29;20050;-84
2023/06/10 02:39:51;;;;;;;5.57;2.15;;;;;;;-147.53;100.00;57128.34;10029396;29;20107;-84
2023/06/10 02:44:53;;;;;;;4.32;1.45;;;;;;;-147.53;100.00;57128.34;10016020;29;20077;-83
2023/06/10 02:50:06;;;;;;;2.83;1.40;;;;;;;-147.53;100.00;57128.34;10024529;29;20085;-84
2023/06/10 02:55:14;;;;;;;1.52;1.13;;;;;;;-147.53;100.00;57128.34;10010603;29;20097;-84
2023/06/10 03:00:23;;;;;;;4.05;1.67;;;;;;;-147.53;100.00;57128.34;10031898;29;20084;-83
2023/06/10 03:05:26;;;;;;;6.47;1.75;;;;;;;-147.53;100.00;57128.34;10019637;29;20081;-85
2023/06/10 03:10:32;;;;;;;3.13;1.27;;;;;;;-147.53;100.00;57128.34;10031108;29;20627;-84
2023/06/10 03:15:36;;;;;;;3.88;1.80;;;;;;;-147.53;100.00;57128.34;10024824;29;20064;-84
2023/06/10 03:20:41;;;;;;;6.82;2.15;;;;;;;-147.53;100.00;57128.34;10030991;29;20463;-84
2023/06/10 03:25:45;;;;;;;1.80;1.48;;;;;;;-147.53;100.00;57128.34;10030154;29;20081;-83
2023/06/10 03:30:51;;;;;;;1.83;1.05;;;;;;;-147.53;100.00;57128.34;10030322;29;20468;-84
2023/06/10 03:35:57;;;;;;;3.85;1.52;;;;;;;-147.53;100.00;57128.34;10023000;29;20050;-84
2023/06/10 03:41:00;;;;;;;4.53;1.75;;;;;;;-147.53;100.00;57128.34;10023068;29;20160;-84
2023/06/10 03:46:02;;;;;;;5.22;2.17;;;;;;;-147.53;100.00;57128.34;10021779;29;20451;-84
2023/06/10 03:51:06;;;;;;;22.65;2.70;;;;;;;-147.53;100.00;57128.34;10023859;29;20528;-84
2023/06/10 03:56:08;;;;;;;4.35;1.95;;;;;;;-147.53;100.00;57128.34;10029076;29;20437;-84
2023/06/10 04:01:10;;;;;;;5.75;2.22;;;;;;;-147.53;100.00;57128.34;10023575;29;20068;-84
2023/06/10 04:06:12;;;;;;;4.50;1.98;;;;;;;-147.53;100.00;57128.34;10012206;29;20057;-84
2023/06/10 04:11:14;;;;;;;8.55;2.80;;;;;;;-147.53;100.00;57128.34;10020186;29;20073;-83
2023/06/10 04:16:16;;;;;;;3.30;1.85;;;;;;;-147.53;100.00;57128.34;10023516;29;20140;-84
2023/06/10 04:21:17;;;;;;;3.90;1.75;;;;;;;-147.53;100.00;57128.34;10013587;29;20077;-84
2023/06/10 04:26:23;;;;;;;3.35;1.80;;;;;;;-147.53;100.00;57128.34;10023619;29;20402;-84
2023/06/10 04:31:26;;;;;;;6.35;1.77;;;;;;;-147.53;100.00;57128.34;10006313;29;20140;-83
2023/06/10 04:36:29;;;;;;;3.83;1.45;;;;;;;-147.53;100.00;57128.34;10028404;29;20084;-84
2023/06/10 04:41:32;;;;;;;4.65;1.50;;;;;;;-147.53;100.00;57128.34;10004767;29;20084;-83
2023/06/10 04:46:34;;;;;;;2.72;1.30;;;;;;;-147.53;100.00;57128.34;10001805;29;20061;-84
2023/06/10 04:51:37;;;;;;;3.40;1.65;;;;;;;-147.53;100.00;57128.34;10024449;29;20065;-85
2023/06/10 04:56:39;;;;;;;6.38;1.70;;;;;;;-147.53;100.00;57128.34;10022802;29;20065;-85
2023/06/10 05:01:42;;;;;;;2.88;1.40;;;;;;;-147.53;100.00;57128.34;10033959;29;20140;-85
2023/06/10 05:06:43;;;;;;;4.47;2.25;;;;;;;-147.53;100.00;57128.34;10039624;29;20053;-85
2023/06/10 05:11:46;;;;;;;6.32;2.00;;;;;;;-147.53;100.00;57128.34;10041573;29;20644;-84
2023/06/10 05:16:48;;;;;;;5.28;2.40;;;;;;;-147.53;100.00;57128.34;10024632;29;20459;-85
2023/06/10 05:21:50;;;;;;;14.98;2.95;;;;;;;-147.53;100.00;57128.34;10024638;29;20065;-84
2023/06/10 05:26:52;;;;;;;4.95;2.33;;;;;;;-147.53;100.00;57128.34;10016607;29;20077;-85
2023/06/10 05:31:56;;;;;;;2.75;1.65;;;;;;;-147.53;100.00;57128.34;10043068;29;20061;-85
2023/06/10 05:36:58;;;;;;;4.13;2.13;;;;;;;-147.53;100.00;57128.34;10040506;29;20061;-84
2023/06/10 05:42:01;;;;;;;4.35;2.17;;;;;;;-147.53;100.00;57128.34;10025488;29;20567;-85
2023/06/10 05:47:04;;;;;;;4.13;2.53;;;;;;;-147.53;100.00;57128.34;10035509;29;20087;-85
2023/06/10 05:52:06;;;;;;;3.88;2.17;;;;;;;-147.53;100.00;57128.34;10031694;29;20076;-85
2023/06/10 05:57:08;;;;;;;5.18;2.30;;;;;;;-147.53;100.00;57128.34;10041334;29;20046;-85
2023/06/10 06:02:10;;;;;;;5.15;2.60;;;;;;;-147.53;100.00;57128.34;10045480;29;20054;-85
2023/06/10 06:07:12;;;;;;;6.50;2.03;;;;;;;-147.53;100.00;57128.34;10048960;29;20057;-85
2023/06/10 06:12:15;;;;;;;9.18;2.40;;;;;;;-147.53;100.00;57128.34;10028688;29;20054;-85
2023/06/10 06:17:16;;;;;;;3.50;2.00;;;;;;;-147.53;100.00;57128.34;10035987;29;20138;-84
2023/06/10 06:22:21;;;;;;;5.05;2.05;;;;;;;-147.53;100.00;57128.34;10029167;29;20061;-85
2023/06/10 06:27:22;;;;;;;7.70;1.88;;;;;;;-147.53;100.00;57128.34;10040330;29;20593;-85
2023/06/10 06:32:27;;;;;;;4.47;2.20;;;;;;;-147.53;100.00;57128.34;10045496;29;20053;-85
2023/06/10 06:37:29;;;;;;;7.55;2.15;;;;;;;-147.53;100.00;57128.34;10037719;29;20086;-85
2023/06/10 06:42:46;;;;;;;5.85;2.30;;;;;;;-147.53;100.00;57128.34;10006244;29;20069;-85
2023/06/10 06:47:57;;;;;;;9.02;1.98;;;;;;;-147.53;100.00;57128.34;10026256;29;20077;-84
2023/06/10 06:52:59;;;;;;;3.53;1.90;;;;;;;-147.53;100.00;57128.34;10036963;29;20058;-85
2023/06/10 06:58:03;;;;;;;6.03;1.98;;;;;;;-147.53;100.00;57128.34;10043982;29;20118;-86
2023/06/10 07:03:05;;;;;;;2.60;1.60;;;;;;;-147.53;100.00;57128.34;10043992;29;20057;-85
2023/06/10 07:08:07;;;;;;;3.28;1.75;;;;;;;-147.53;100.00;57128.34;10037575;29;20050;-85
2023/06/10 07:13:08;;;;;;;5.95;2.35;;;;;;;-147.53;100.00;57128.34;10042377;29;20106;-85
2023/06/10 07:18:11;;;;;;;11.88;3.50;;;;;;;-147.53;100.00;57128.34;10041305;29;20065;-85
2023/06/10 07:23:13;;;;;;;9.93;2.90;;;;;;;-147.53;100.00;57128.34;10042996;29;20057;-85
2023/06/10 07:28:14;;;;;;;5.32;2.40;;;;;;;-147.53;100.00;57128.34;10027263;29;20096;-85
2023/06/10 07:33:17;;;;;;;5.80;2.80;;;;;;;-147.53;100.00;57128.34;10036206;29;20072;-85
2023/06/10 07:38:19;;;;;;;8.35;2.42;;;;;;;-147.53;100.00;57128.34;10044190;29;20077;-86
2023/06/10 07:43:20;;;;;;;4.57;2.03;;;;;;;-147.53;100.00;57128.34;10040363;29;20183;-85
2023/06/10 07:48:22;;;;;;;4.82;2.00;;;;;;;-147.53;100.00;57128.34;10045005;29;20057;-85
2023/06/10 07:54:04;;;;;;;4.60;1.75;;;;;;;-147.53;100.00;57128.34;10057821;29;20057;-86
2023/06/10 07:59:30;;;;;;;7.30;1.70;;;;;;;-147.53;100.00;57128.34;10021712;29;20137;-85
2023/06/10 08:04:32;;;;;;;7.93;2.10;;;;;;;-147.53;100.00;57128.34;10022208;29;20061;-85
2023/06/10 08:09:33;;;;;;;4.10;1.95;;;;;;;-147.53;100.00;57128.34;10018063;29;20049;-85
2023/06/10 08:14:36;;;;;;;3.08;1.75;;;;;;;-147.53;100.00;57128.34;10038699;29;20114;-85
2023/06/10 08:19:38;;;;;;;4.70;1.88;;;;;;;-147.53;100.00;57128.34;10024713;29;20053;-85
2023/06/10 08:24:40;;;;;;;5.50;1.70;;;;;;;-147.53;100.00;57128.34;10022689;29;20053;-85
2023/06/10 08:29:41;;;;;;;3.53;2.00;;;;;;;-147.53;100.00;57128.34;10027938;29;20084;-85
2023/06/10 08:34:43;;;;;;;3.03;1.65;;;;;;;-147.53;100.00;57128.34;10005865;29;20060;-84
2023/06/10 08:39:45;;;;;;;6.00;2.08;;;;;;;-147.53;100.00;57128.34;10018325;29;20508;-86
2023/06/10 08:44:48;;;;;;;7.45;2.85;;;;;;;-147.53;100.00;57128.34;10040812;29;20061;-85
2023/06/10 08:49:50;;;;;;;4.82;1.90;;;;;;;-147.53;100.00;57128.34;10033437;29;20106;-84
2023/06/10 08:54:59;;;;;;;5.15;1.70;;;;;;;-147.53;100.00;57128.34;10039472;29;20080;-85
2023/06/10 09:00:02;;;;;;;3.92;1.88;;;;;;;-147.53;100.00;57128.34;10040815;29;20141;-85
2023/06/10 09:05:08;;;;;;;5.05;1.80;;;;;;;-147.53;100.00;57128.34;10023244;29;20607;-86
2023/06/10 09:10:11;;;;;;;6.60;2.20;;;;;;;-147.53;100.00;57128.34;10037771;29;20088;-86
2023/06/10 09:15:14;;;;;;;4.65;2.05;;;;;;;-147.53;100.00;57128.34;10033017;29;20054;-86
2023/06/10 09:20:16;;;;;;;4.10;2.00;;;;;;;-147.53;100.00;57128.34;10039300;29;20057;-86
2023/06/10 09:25:18;;;;;;;4.43;1.90;;;;;;;-147.53;100.00;57128.34;10036061;29;20118;-85
2023/06/10 09:30:28;;;;;;;4.28;2.10;;;;;;;-147.53;100.00;57128.34;10022358;29;20069;-86
2023/06/10 09:35:31;;;;;;;10.02;2.80;;;;;;;-147.53;100.00;57128.34;10043339;29;20508;-85
2023/06/10 09:40:32;;;;;;;3.67;1.77;;;;;;;-147.53;100.00;57128.34;10039709;29;20069;-85
2023/06/10 09:45:34;;;;;;;4.60;2.17;;;;;;;-147.53;100.00;57128.34;10036163;29;20599;-86
2023/06/10 09:50:43;;;;;;;6.75;2.28;;;;;;;-147.53;100.00;57128.34;10022774;29;20162;-85
2023/06/10 09:55:45;;;;;;;8.18;2.28;;;;;;;-147.53;100.00;57128.34;10019475;29;20057;-85
2023/06/10 10:00:52;;;;;;;4.45;2.00;;;;;;;-147.53;100.00;57128.34;10019202;29;20054;-87
2023/06/10 10:06:00;;;;;;;6.27;1.63;;;;;;;-147.53;100.00;57128.34;10022775;29;20132;-85
2023/06/10 10:11:03;;;;;;;12.07;3.33;;;;;;;-147.53;100.00;57128.34;10021166;29;20058;-85
2023/06/10 10:16:12;;;;;;;5.32;2.28;;;;;;;-147.53;100.00;57128.34;10016635;29;20068;-86
2023/06/10 10:21:16;;;;;;;4.65;2.13;;;;;;;-147.53;100.00;57128.34;10033042;29;20049;-85
2023/06/10 10:26:18;;;;;;;7.88;2.20;;;;;;;-147.53;100.00;57128.34;10035915;29;20062;-85
2023/06/10 10:31:21;;;;;;;5.50;2.15;;;;;;;-147.53;100.00;57128.34;10039630;29;20128;-85
2023/06/10 10:36:23;;;;;;;5.22;2.55;;;;;;;-147.53;100.00;57128.34;10022913;29;20154;-83
2023/06/10 10:41:26;;;;;;;4.53;2.25;;;;;;;-147.53;100.00;57128.34;10037490;29;20054;-85
2023/06/10 10:46:30;;;;;;;5.25;2.20;;;;;;;-147.53;100.00;57128.34;9999794;29;20420;-85
2023/06/10 10:51:37;;;;;;;7.22;2.33;;;;;;;-147.53;100.00;57128.34;10041277;29;20060;-86
2023/06/10 10:56:39;;;;;;;7.32;2.58;;;;;;;-147.53;100.00;57128.34;10048186;29;20136;-85
2023/06/10 11:01:45;;;;;;;3.83;1.95;;;;;;;-147.53;100.00;57128.34;10017466;29;20065;-86
2023/06/10 11:06:54;;;;;;;3.85;2.13;;;;;;;-147.53;100.00;57128.34;10040199;29;20057;-85
2023/06/10 11:11:59;;;;;;;4.35;2.20;;;;;;;-147.53;100.00;57128.34;10031459;29;20338;-86
2023/06/10 11:17:01;;;;;;;5.07;2.00;;;;;;;-147.53;100.00;57128.34;10035421;29;20145;-85
2023/06/10 11:22:07;;;;;;;6.50;2.03;;;;;;;-147.53;100.00;57128.34;10025658;29;20508;-86
2023/06/10 11:27:18;;;;;;;3.10;1.50;;;;;;;-147.53;100.00;57128.34;10009129;29;20810;-86
2023/06/10 11:32:20;;;;;;;5.00;1.65;;;;;;;-147.53;100.00;57128.34;10035323;29;20539;-85
2023/06/10 11:37:22;;;;;;;3.10;1.20;;;;;;;-147.53;100.00;57128.34;10026482;29;20050;-85
2023/06/10 11:42:46;;;;;;;5.53;1.63;;;;;;;-147.53;100.00;57128.34;10025662;29;20078;-85
2023/06/10 11:48:00;;;;;;;3.38;1.58;;;;;;;-147.53;100.00;57128.34;10044288;29;20475;-85
2023/06/10 11:53:03;;;;;;;2.95;1.30;;;;;;;-147.53;100.00;57128.34;10026183;29;20053;-86
2023/06/10 11:58:05;;;;;;;2.10;1.10;;;;;;;-147.53;100.00;57128.34;10045282;29;20057;-85
2023/06/10 12:03:06;;;;;;;4.82;1.48;;;;;;;-147.53;100.00;57128.34;10041185;29;20053;-85
2023/06/10 12:08:10;;;;;;;2.15;0.93;;;;;;;-147.53;100.00;57128.34;10032603;29;20064;-85
2023/06/10 12:13:12;;;;;;;2.00;1.00;;;;;;;-147.53;100.00;57128.34;10041940;29;20563;-85
2023/06/10 12:18:18;;;;;;;4.18;1.30;;;;;;;-147.53;100.00;57128.34;10025451;29;20045;-85
2023/06/10 12:23:21;;;;;;;3.28;1.30;;;;;;;-147.53;100.00;57128.34;10035233;29;20156;-85
2023/06/10 12:28:24;;;;;;;2.83;1.08;;;;;;;-147.53;100.00;57128.34;10039278;29;20061;-85
2023/06/10 12:33:26;;;;;;;4.97;1.00;;;;;;;-147.53;100.00;57128.34;10045631;29;20168;-83
2023/06/10 12:38:28;;;;;;;3.22;1.20;;;;;;;-147.53;100.00;57128.34;10011860;29;20077;-84
2023/06/10 12:43:31;;;;;;;2.22;1.15;;;;;;;-147.53;100.00;57128.34;10040952;29;20585;-84
2023/06/10 12:48:32;;;;;;;1.58;0.90;;;;;;;-147.53;100.00;57128.34;10038204;29;20060;-84
2023/06/10 12:53:34;;;;;;;4.85;1.23;;;;;;;-147.53;100.00;57128.34;10041781;29;20056;-85
2023/06/10 12:58:35;;;;;;;1.73;1.08;;;;;;;-147.53;100.00;57128.34;10009926;29;20149;-84
2023/06/10 13:03:39;;;;;;;2.85;1.00;;;;;;;-147.53;100.00;57128.34;10044232;29;20072;-84
2023/06/10 13:08:40;;;;;;;4.03;1.13;;;;;;;-147.53;100.00;57128.34;10033053;29;20504;-85
2023/06/10 13:13:42;;;;;;;2.60;1.02;;;;;;;-147.53;100.00;57128.34;10019893;29;20473;-85
2023/06/10 13:18:44;;;;;;;2.40;1.08;;;;;;;-147.53;100.00;57128.34;10040856;29;20049;-84
2023/06/10 13:23:48;;;;;;;2.25;1.05;;;;;;;-147.53;100.00;57128.34;10046378;29;20572;-85
2023/06/10 13:28:50;;;;;;;3.50;1.15;;;;;;;-147.53;100.00;57128.34;10024045;29;20060;-84
2023/06/10 13:33:52;;;;;;;2.80;1.15;;;;;;;-147.53;100.00;57128.34;10021601;29;20079;-83
2023/06/10 13:38:53;;;;;;;2.03;0.90;;;;;;;-147.53;100.00;57128.34;10041040;29;20129;-85
2023/06/10 13:43:55;;;;;;;3.42;0.85;;;;;;;-147.53;100.00;57128.34;10041740;29;20218;-84
2023/06/10 13:48:57;;;;;;;1.92;0.93;;;;;;;-147.53;100.00;57128.34;10025485;29;20085;-84
2023/06/10 13:53:59;;;;;;;2.47;1.00;;;;;;;-147.53;100.00;57128.34;10041301;29;20508;-84
2023/06/10 13:59:01;;;;;;;2.08;1.05;;;;;;;-147.53;100.00;57128.34;10041055;29;20108;-84
2023/06/10 14:04:06;;;;;;;2.25;0.85;;;;;;;-147.53;100.00;57128.34;10041021;29;20057;-84
2023/06/10 14:09:09;;;;;;;4.03;1.33;;;;;;;-147.53;100.00;57128.34;10025356;29;20070;-84
2023/06/10 14:14:11;;;;;;;3.97;1.30;;;;;;;-147.53;100.00;57128.34;10018021;29;20110;-85
2023/06/10 14:19:12;;;;;;;3.13;0.95;;;;;;;-147.53;100.00;57128.34;10046084;29;20097;-85
2023/06/10 14:24:14;;;;;;;3.30;1.40;;;;;;;-147.53;100.00;57128.34;10046951;29;20080;-85
2023/06/10 14:29:18;;;;;;;3.08;1.27;;;;;;;-147.53;100.00;57128.34;10049452;29;20081;-82
2023/06/10 14:34:19;;;;;;;2.05;1.00;;;;;;;-147.53;100.00;57128.34;10047455;29;20088;-84
2023/06/10 14:39:22;;;;;;;3.58;1.40;;;;;;;-147.53;100.00;57128.34;10031562;29;20488;-84
2023/06/10 14:44:24;;;;;;;2.60;1.15;;;;;;;-147.53;100.00;57128.34;10032482;29;20053;-84
2023/06/10 14:49:25;;;;;;;2.58;1.30;;;;;;;-147.53;100.00;57128.34;10031690;29;20049;-84
2023/06/10 14:54:27;;;;;;;4.07;1.55;;;;;;;-147.53;100.00;57128.34;10039980;29;20073;-84
2023/06/10 14:59:29;;;;;;;1.80;1.00;;;;;;;-147.53;100.00;57128.34;10046144;29;20061;-84
2023/06/10 15:04:31;;;;;;;3.25;1.52;;;;;;;-147.53;100.00;57128.34;10048986;29;20085;-84
2023/06/10 15:09:36;;;;;;;2.13;1.30;;;;;;;-147.53;100.00;57128.34;10029049;29;20434;-84
2023/06/10 15:14:37;;;;;;;2.65;1.00;;;;;;;-147.53;100.00;57128.34;10047751;29;20060;-84
2023/06/10 15:19:39;;;;;;;3.13;1.27;;;;;;;-147.53;100.00;57128.34;10048475;29;20057;-84
2023/06/10 15:24:41;;;;;;;3.08;1.30;;;;;;;-147.53;100.00;57128.34;10024432;29;20058;-84
2023/06/10 15:29:43;;;;;;;2.72;1.30;;;;;;;-147.53;100.00;57128.34;10043604;29;20121;-82
2023/06/10 15:34:47;;;;;;;3.38;1.25;;;;;;;-147.53;100.00;57128.34;10043626;29;20077;-84
2023/06/10 15:39:49;;;;;;;3.42;1.50;;;;;;;-147.53;100.00;57128.34;10024252;29;20580;-85
2023/06/10 15:44:52;;;;;;;3.75;1.63;;;;;;;-147.53;100.00;57128.34;10042351;29;20080;-84
2023/06/10 15:49:54;;;;;;;4.78;1.58;;;;;;;-147.53;100.00;57128.34;10044885;29;20743;-85
2023/06/10 15:54:56;;;;;;;3.15;1.40;;;;;;;-147.53;100.00;57128.34;10044545;29;20224;-84
2023/06/10 15:59:58;;;;;;;8.68;3.70;;;;;;;-147.53;100.00;57128.34;10046385;29;20077;-84
2023/06/10 16:05:00;;;;;;;4.43;1.85;;;;;;;-147.53;100.00;57128.34;10046573;29;20128;-85
2023/06/10 16:10:02;;;;;;;3.60;1.80;;;;;;;-147.53;100.00;57128.34;10042400;29;20632;-84
2023/06/10 16:15:05;;;;;;;10.73;3.33;;;;;;;-147.53;100.00;57128.34;10027131;29;20051;-85
2023/06/10 16:20:07;;;;;;;3.70;1.80;;;;;;;-147.53;100.00;57128.34;10045400;29;20065;-84
2023/06/10 16:25:09;;;;;;;5.97;1.80;;;;;;;-147.53;100.00;57128.34;10038609;29;20157;-84
2023/06/10 16:30:14;;;;;;;3.65;1.73;;;;;;;-147.53;100.00;57128.34;10032003;29;20693;-85
2023/06/10 16:35:16;;;;;;;5.85;1.98;;;;;;;-147.53;100.00;57128.34;10044870;29;20095;-84
2023/06/10 16:40:19;;;;;;;2.75;1.50;;;;;;;-147.53;100.00;57128.34;10019821;29;20830;-84
2023/06/10 16:45:20;;;;;;;3.78;1.90;;;;;;;-147.53;100.00;57128.34;10038509;29;20148;-84
2023/06/10 16:50:22;;;;;;;4.50;2.00;;;;;;;-147.53;100.00;57128.34;10043326;29;20060;-85
2023/06/10 16:55:24;;;;;;;4.45;2.03;;;;;;;-147.53;100.00;57128.34;10024833;29;20096;-84
2023/06/10 17:00:26;;;;;;;2.90;1.67;;;;;;;-147.53;100.00;57128.34;10036008;29;20061;-84
2023/06/10 17:05:27;;;;;;;5.47;1.98;;;;;;;-147.53;100.00;57128.34;10027861;29;20063;-84
2023/06/10 17:10:29;;;;;;;4.78;2.10;;;;;;;-147.53;100.00;57128.34;10034305;29;20057;-84
2023/06/10 17:15:31;;;;;;;3.40;1.73;;;;;;;-147.53;100.00;57128.34;10012106;29;20072;-83
2023/06/10 17:20:33;;;;;;;5.25;2.08;;;;;;;-147.53;100.00;57128.34;10026715;29;20102;-83
2023/06/10 17:25:36;;;;;;;5.55;2.08;;;;;;;-147.53;100.00;57128.34;10011085;29;20173;-84
2023/06/10 17:30:38;;;;;;;5.28;1.90;;;;;;;-147.53;100.00;57128.34;10025950;29;20057;-83
2023/06/10 17:35:39;;;;;;;3.05;1.52;;;;;;;-147.53;100.00;57128.34;10042834;29;20049;-84
2023/06/10 17:40:42;;;;;;;4.28;1.70;;;;;;;-147.53;100.00;57128.34;10000003;29;20519;-84
2023/06/10 17:45:44;;;;;;;4.15;1.65;;;;;;;-147.53;100.00;57128.34;10042561;29;20607;-84
2023/06/10 17:50:46;;;;;;;4.28;1.80;;;;;;;-147.53;100.00;57128.34;10042625;29;20101;-83
2023/06/10 17:55:48;;;;;;;3.90;1.77;;;;;;;-147.53;100.00;57128.34;10022475;29;20132;-83
2023/06/10 18:00:50;;;;;;;8.05;2.78;;;;;;;-147.53;100.00;57128.34;10026516;29;20060;-83
2023/06/10 18:05:53;;;;;;;10.63;2.30;;;;;;;-147.53;100.00;57128.34;10051172;29;20552;-84
2023/06/10 18:10:55;;;;;;;3.97;1.98;;;;;;;-147.53;100.00;57128.34;10047502;29;20049;-83
2023/06/10 18:15:59;;;;;;;6.22;2.05;;;;;;;-147.53;100.00;57128.34;10049883;29;20132;-85
2023/06/10 18:21:02;;;;;;;4.07;2.17;;;;;;;-147.53;100.00;57128.34;10026036;29;20050;-83
2023/06/10 18:26:04;;;;;;;6.25;2.33;;;;;;;-147.53;100.00;57128.34;10042311;29;20061;-83
2023/06/10 18:31:06;;;;;;;4.38;2.00;;;;;;;-147.53;100.00;57128.34;10041920;29;20080;-83
2023/06/10 18:36:07;;;;;;;4.85;2.38;;;;;;;-147.53;100.00;57128.34;10032199;29;20583;-84
2023/06/10 18:44:36;;;;;;;3.70;1.80;;;;;;;26.91;43.68;101533.41;10308420;27;21357;-83
2023/06/10 18:49:38;;;;;;;4.28;1.88;;;;;;;26.82;44.63;101531.06;10388898;28;20448;-83
2023/06/10 18:54:40;;;;;;;3.97;2.20;;;;;;;26.58;45.54;101536.44;10424023;28;20105;-83
2023/06/10 18:59:42;;;;;;;4.72;2.33;;;;;;;26.44;46.29;101536.97;10392106;28;20358;-83
2023/06/10 19:04:44;;;;;;;12.30;2.97;;;;;;;26.33;46.71;101543.66;10352716;28;20061;-83
2023/06/10 19:09:47;;;;;;;6.15;2.47;;;;;;;26.10;47.50;101537.31;10348225;28;20648;-83
2023/06/10 19:14:49;;;;;;;6.75;2.97;;;;;;;25.91;48.19;101551.38;10351431;28;20579;-83
2023/06/10 19:19:51;;;;;;;6.38;2.28;;;;;;;25.75;48.79;101555.53;10352511;28;20054;-83
2023/06/10 19:25:03;;;;;;;4.47;2.08;;;;;;;25.52;49.87;101557.19;10353715;28;20062;-83
2023/06/10 19:30:06;;;;;;;4.50;2.22;;;;;;;25.35;50.73;101554.16;10437335;28;20135;-83
2023/06/10 19:35:08;;;;;;;4.05;2.05;;;;;;;25.35;50.73;101554.16;10424714;28;20045;-84
2023/06/10 19:40:12;;;;;;;3.08;1.90;;;;;;;24.91;53.12;101567.16;10438717;28;20041;-84
2023/06/10 19:45:14;;;;;;;4.70;1.70;;;;;;;24.73;54.00;101574.81;10421032;28;20061;-84
2023/06/10 19:50:16;;;;;;;5.50;2.08;;;;;;;24.55;54.96;101584.22;10347175;28;20056;-84
2023/06/10 19:55:18;;;;;;;5.13;1.60;;;;;;;24.42;55.46;101589.03;10314504;28;20419;-84
2023/06/10 20:00:20;;;;;;;5.70;1.83;;;;;;;24.42;55.46;101589.03;10303709;28;20046;-84
2023/06/10 20:05:23;;;;;;;4.35;1.63;;;;;;;24.09;56.84;101597.06;10320130;28;20050;-84
2023/06/10 20:10:24;;;;;;;3.75;1.80;;;;;;;23.94;57.15;101605.50;10310575;28;20137;-84
2023/06/10 20:15:26;;;;;;;5.72;1.95;;;;;;;23.81;57.43;101613.81;10318050;28;20528;-84
2023/06/10 20:20:28;;;;;;;3.72;1.38;;;;;;;23.70;57.99;101617.66;10317966;28;20431;-84
2023/06/10 20:25:30;;;;;;;2.88;1.20;;;;;;;23.52;57.91;101635.00;10300395;28;20046;-84
2023/06/10 20:30:32;;;;;;;3.47;1.50;;;;;;;23.38;58.45;101630.00;10307228;28;20049;-85
2023/06/10 20:35:34;;;;;;;4.90;1.95;;;;;;;23.25;58.71;101642.75;10284133;28;20534;-84
2023/06/10 20:40:36;;;;;;;4.82;1.90;;;;;;;23.14;59.20;101634.09;10300139;28;20105;-84
2023/06/10 20:45:38;;;;;;;8.05;2.50;;;;;;;23.03;59.70;101640.53;10299188;28;20038;-83
2023/06/10 20:50:40;;;;;;;7.07;1.85;;;;;;;22.92;59.90;101639.84;10315220;28;20043;-84
2023/06/10 20:55:42;;;;;;;5.18;2.30;;;;;;;22.78;60.40;101638.34;10313103;28;20461;-84
2023/06/10 21:00:43;;;;;;;6.70;2.50;;;;;;;22.68;60.98;101647.44;10297886;28;20039;-83
2023/06/10 21:05:46;;;;;;;6.95;2.00;;;;;;;22.54;60.61;101652.19;10315566;28;20504;-84
2023/06/10 21:10:49;;;;;;;3.53;1.60;;;;;;;22.44;60.91;101654.13;10312416;28;20049;-84
2023/06/10 21:15:51;;;;;;;5.13;2.08;;;;;;;22.27;60.74;101642.88;10287766;28;20051;-84
2023/06/10 21:20:53;;;;;;;4.03;1.90;;;;;;;22.18;60.43;101652.78;10292790;28;20046;-84
2023/06/10 21:25:54;;;;;;;6.93;2.00;;;;;;;22.07;60.61;101645.00;10299880;28;20092;-84
2023/06/10 21:30:56;;;;;;;5.93;2.28;;;;;;;21.98;60.16;101654.91;10314018;28;20057;-83
2023/06/10 21:35:58;;;;;;;7.85;2.33;;;;;;;21.89;60.42;101656.84;10312077;28;20054;-84
2023/06/10 21:40:59;;;;;;;5.10;2.00;;;;;;;21.79;60.03;101665.03;10294124;28;20084;-84
2023/06/10 21:46:02;;;;;;;4.35;2.10;;;;;;;21.64;60.20;101701.66;10296154;28;20046;-84
2023/06/10 21:51:04;;;;;;;4.70;2.17;;;;;;;21.47;60.50;101703.66;10294095;28;20312;-84
2023/06/10 21:56:06;;;;;;;5.10;1.90;;;;;;;21.35;60.30;101702.91;10295931;28;20046;-84
2023/06/10 22:01:08;;;;;;;5.50;2.50;;;;;;;21.22;60.43;101697.78;10295129;28;20129;-84
2023/06/10 22:06:10;;;;;;;5.47;2.20;;;;;;;21.10;60.04;101704.13;10293010;28;20069;-84
2023/06/10 22:11:11;;;;;;;5.50;2.40;;;;;;;21.03;60.01;101697.97;10294355;28;20125;-84
2023/06/10 22:16:13;;;;;;;5.28;2.63;;;;;;;21.00;59.62;101698.91;10293426;28;20046;-83
2023/06/10 22:21:15;;;;;;;10.18;2.80;;;;;;;20.91;59.70;101691.03;10307023;28;20823;-83
2023/06/10 22:26:16;;;;;;;3.97;1.95;;;;;;;20.84;59.95;101692.00;10288728;28;20062;-84
2023/06/10 22:31:18;;;;;;;12.35;3.35;;;;;;;20.75;59.98;101702.75;10292700;28;20058;-84
2023/06/10 22:36:20;;;;;;;9.80;4.05;;;;;;;20.64;60.21;101693.06;10293508;28;20057;-84
2023/06/10 22:41:22;;;;;;;8.63;3.20;;;;;;;20.51;60.49;101696.75;10292413;28;20081;-84
2023/06/10 22:46:23;;;;;;;6.00;2.90;;;;;;;20.43;60.83;101698.59;10290468;28;20070;-84
2023/06/10 22:51:25;;;;;;;7.53;2.67;;;;;;;20.34;61.04;101698.69;10306975;28;20034;-84